sensor_id;sensor_type;location;lat;lon;timestamp;temperature;humidity
39957;DHT22;48483;44.640;7.494;2022-10-31T00:02:18;14.70;99.90
39957;DHT22;48483;44.640;7.494;2022-10-31T00:04:45;14.70;99.90
39957;DHT22;48483;44.640;7.494;2022-10-31T00:07:12;14.60;99.90
39957;DHT22;48483;44.640;7.494;2022-10-31T00:09:40;14.70;99.90
39957;DHT22;48483;44.640;7.494;2022-10-31T00:12:06;14.70;99.90
39957;DHT22;48483;44.640;7.494;2022-10-31T00:14:33;14.60;99.90
39957;DHT22;48483;44.640;7.494;2022-10-31T00:16:59;14.60;99.90
39957;DHT22;48483;44.640;7.494;2022-10-31T00:19:26;14.60;99.90
39957;DHT22;48483;44.640;7.494;2022-10-31T00:21:53;14.60;99.90
39957;DHT22;48483;44.640;7.494;2022-10-31T00:24:20;14.60;99.90
39957;DHT22;48483;44.640;7.494;2022-10-31T00:26:48;14.60;99.90
39957;DHT22;48483;44.640;7.494;2022-10-31T00:29:14;14.60;99.90
39957;DHT22;48483;44.640;7.494;2022-10-31T00:31:41;14.60;99.90
39957;DHT22;48483;44.640;7.494;2022-10-31T00:34:08;14.50;99.90
39957;DHT22;48483;44.640;7.494;2022-10-31T00:36:35;14.50;99.90
39957;DHT22;48483;44.640;7.494;2022-10-31T00:39:02;14.50;99.90
39957;DHT22;48483;44.640;7.494;2022-10-31T00:41:29;14.40;99.90
39957;DHT22;48483;44.640;7.494;2022-10-31T00:43:57;14.50;99.90
39957;DHT22;48483;44.640;7.494;2022-10-31T00:46:24;14.50;99.90
39957;DHT22;48483;44.640;7.494;2022-10-31T00:48:50;14.40;99.90
39957;DHT22;48483;44.640;7.494;2022-10-31T00:51:17;14.40;99.90
39957;DHT22;48483;44.640;7.494;2022-10-31T00:53:44;14.50;99.90
39957;DHT22;48483;44.640;7.494;2022-10-31T00:56:11;14.50;99.90
39957;DHT22;48483;44.640;7.494;2022-10-31T00:58:37;14.40;99.90
39957;DHT22;48483;44.640;7.494;2022-10-31T01:01:05;14.40;99.90
39957;DHT22;48483;44.640;7.494;2022-10-31T01:03:34;14.40;99.90
39957;DHT22;48483;44.640;7.494;2022-10-31T01:06:04;14.30;99.90
39957;DHT22;48483;44.640;7.494;2022-10-31T01:08:32;14.40;99.90
39957;DHT22;48483;44.640;7.494;2022-10-31T01:11:01;14.30;99.90
39957;DHT22;48483;44.640;7.494;2022-10-31T01:13:28;14.30;99.90
39957;DHT22;48483;44.640;7.494;2022-10-31T01:15:55;14.40;99.90
39957;DHT22;48483;44.640;7.494;2022-10-31T01:18:24;14.40;99.90
39957;DHT22;48483;44.640;7.494;2022-10-31T01:21:00;14.30;99.90
39957;DHT22;48483;44.640;7.494;2022-10-31T01:23:28;14.20;99.90
39957;DHT22;48483;44.640;7.494;2022-10-31T01:26:02;14.30;99.90
39957;DHT22;48483;44.640;7.494;2022-10-31T01:28:29;14.30;99.90
39957;DHT22;48483;44.640;7.494;2022-10-31T01:30:58;14.30;99.90
39957;DHT22;48483;44.640;7.494;2022-10-31T01:33:27;14.30;99.90
39957;DHT22;48483;44.640;7.494;2022-10-31T01:35:54;14.20;99.90
39957;DHT22;48483;44.640;7.494;2022-10-31T01:38:20;14.20;99.90
39957;DHT22;48483;44.640;7.494;2022-10-31T01:40:47;14.20;99.90
39957;DHT22;48483;44.640;7.494;2022-10-31T01:43:14;14.20;99.90
39957;DHT22;48483;44.640;7.494;2022-10-31T01:45:42;14.20;99.90
39957;DHT22;48483;44.640;7.494;2022-10-31T01:48:13;14.20;99.90
39957;DHT22;48483;44.640;7.494;2022-10-31T01:50:41;14.30;99.90
39957;DHT22;48483;44.640;7.494;2022-10-31T01:53:10;14.20;99.90
39957;DHT22;48483;44.640;7.494;2022-10-31T01:55:40;14.20;99.90
39957;DHT22;48483;44.640;7.494;2022-10-31T01:58:11;14.20;99.90
39957;DHT22;48483;44.640;7.494;2022-10-31T02:00:39;14.20;99.90
39957;DHT22;48483;44.640;7.494;2022-10-31T02:03:08;14.20;99.90
39957;DHT22;48483;44.640;7.494;2022-10-31T02:05:36;14.20;99.90
39957;DHT22;48483;44.640;7.494;2022-10-31T02:08:07;14.20;99.90
39957;DHT22;48483;44.640;7.494;2022-10-31T02:10:37;14.20;99.90
39957;DHT22;48483;44.640;7.494;2022-10-31T02:13:05;14.20;99.90
39957;DHT22;48483;44.640;7.494;2022-10-31T02:15:36;14.20;99.90
39957;DHT22;48483;44.640;7.494;2022-10-31T02:18:05;14.20;99.90
39957;DHT22;48483;44.640;7.494;2022-10-31T02:20:39;14.20;99.90
39957;DHT22;48483;44.640;7.494;2022-10-31T02:23:50;14.20;99.90
39957;DHT22;48483;44.640;7.494;2022-10-31T02:26:37;14.20;99.90
39957;DHT22;48483;44.640;7.494;2022-10-31T02:32:12;14.20;99.90
39957;DHT22;48483;44.640;7.494;2022-10-31T02:34:48;14.10;99.90
39957;DHT22;48483;44.640;7.494;2022-10-31T02:37:24;14.10;99.90
39957;DHT22;48483;44.640;7.494;2022-10-31T02:39:56;14.10;99.90
39957;DHT22;48483;44.640;7.494;2022-10-31T02:42:46;14.10;99.90
39957;DHT22;48483;44.640;7.494;2022-10-31T02:45:24;14.10;99.90
39957;DHT22;48483;44.640;7.494;2022-10-31T02:47:55;14.10;99.90
39957;DHT22;48483;44.640;7.494;2022-10-31T02:50:27;14.10;99.90
39957;DHT22;48483;44.640;7.494;2022-10-31T02:52:55;14.10;99.90
39957;DHT22;48483;44.640;7.494;2022-10-31T02:55:49;14.00;99.90
39957;DHT22;48483;44.640;7.494;2022-10-31T02:58:21;14.00;99.90
39957;DHT22;48483;44.640;7.494;2022-10-31T03:03:53;14.00;99.90
39957;DHT22;48483;44.640;7.494;2022-10-31T03:06:30;14.00;99.90
39957;DHT22;48483;44.640;7.494;2022-10-31T03:09:03;14.00;99.90
39957;DHT22;48483;44.640;7.494;2022-10-31T03:11:42;14.10;99.90
39957;DHT22;48483;44.640;7.494;2022-10-31T03:14:14;14.00;99.90
39957;DHT22;48483;44.640;7.494;2022-10-31T03:16:46;14.10;99.90
39957;DHT22;48483;44.640;7.494;2022-10-31T03:19:35;14.10;99.90
39957;DHT22;48483;44.640;7.494;2022-10-31T03:22:07;14.00;99.90
39957;DHT22;48483;44.640;7.494;2022-10-31T03:24:38;14.10;99.90
39957;DHT22;48483;44.640;7.494;2022-10-31T03:27:08;14.10;99.90
39957;DHT22;48483;44.640;7.494;2022-10-31T03:29:37;14.10;99.90
39957;DHT22;48483;44.640;7.494;2022-10-31T03:32:08;14.10;99.90
39957;DHT22;48483;44.640;7.494;2022-10-31T03:34:41;14.10;99.90
39957;DHT22;48483;44.640;7.494;2022-10-31T03:37:11;14.10;99.90
39957;DHT22;48483;44.640;7.494;2022-10-31T03:39:43;14.10;99.90
39957;DHT22;48483;44.640;7.494;2022-10-31T03:42:14;14.10;99.90
39957;DHT22;48483;44.640;7.494;2022-10-31T03:44:44;14.10;99.90
39957;DHT22;48483;44.640;7.494;2022-10-31T03:47:13;14.10;99.90
39957;DHT22;48483;44.640;7.494;2022-10-31T03:49:41;14.00;99.90
39957;DHT22;48483;44.640;7.494;2022-10-31T03:52:15;14.10;99.90
39957;DHT22;48483;44.640;7.494;2022-10-31T03:54:45;14.10;99.90
39957;DHT22;48483;44.640;7.494;2022-10-31T03:57:16;14.10;99.90
39957;DHT22;48483;44.640;7.494;2022-10-31T03:59:46;14.20;99.90
39957;DHT22;48483;44.640;7.494;2022-10-31T04:02:14;14.10;99.90
39957;DHT22;48483;44.640;7.494;2022-10-31T04:04:46;14.20;99.90
39957;DHT22;48483;44.640;7.494;2022-10-31T04:07:14;14.20;99.90
39957;DHT22;48483;44.640;7.494;2022-10-31T04:09:43;14.20;99.90
39957;DHT22;48483;44.640;7.494;2022-10-31T04:12:14;14.20;99.90
39957;DHT22;48483;44.640;7.494;2022-10-31T04:15:17;14.20;99.90
39957;DHT22;48483;44.640;7.494;2022-10-31T04:17:47;14.10;99.90
39957;DHT22;48483;44.640;7.494;2022-10-31T04:20:29;14.10;99.90
39957;DHT22;48483;44.640;7.494;2022-10-31T04:22:56;14.20;99.90
39957;DHT22;48483;44.640;7.494;2022-10-31T04:25:22;14.20;99.90
39957;DHT22;48483;44.640;7.494;2022-10-31T04:27:51;14.10;99.90
39957;DHT22;48483;44.640;7.494;2022-10-31T04:30:18;14.10;99.90
39957;DHT22;48483;44.640;7.494;2022-10-31T04:32:44;14.10;99.90
39957;DHT22;48483;44.640;7.494;2022-10-31T04:35:11;14.10;99.90
39957;DHT22;48483;44.640;7.494;2022-10-31T04:37:39;14.00;99.90
39957;DHT22;48483;44.640;7.494;2022-10-31T04:40:07;14.00;99.90
39957;DHT22;48483;44.640;7.494;2022-10-31T04:43:06;14.00;99.90
39957;DHT22;48483;44.640;7.494;2022-10-31T04:45:32;14.00;99.90
39957;DHT22;48483;44.640;7.494;2022-10-31T04:48:01;14.00;99.90
39957;DHT22;48483;44.640;7.494;2022-10-31T04:50:30;13.90;99.90
39957;DHT22;48483;44.640;7.494;2022-10-31T04:52:58;13.90;99.90
39957;DHT22;48483;44.640;7.494;2022-10-31T04:55:28;13.90;99.90
39957;DHT22;48483;44.640;7.494;2022-10-31T04:58:17;13.90;99.90
39957;DHT22;48483;44.640;7.494;2022-10-31T05:00:44;13.90;99.90
39957;DHT22;48483;44.640;7.494;2022-10-31T05:03:12;13.90;99.90
39957;DHT22;48483;44.640;7.494;2022-10-31T05:05:39;13.90;99.90
39957;DHT22;48483;44.640;7.494;2022-10-31T05:08:07;13.90;99.90
39957;DHT22;48483;44.640;7.494;2022-10-31T05:10:33;13.90;99.90
39957;DHT22;48483;44.640;7.494;2022-10-31T05:13:02;13.90;99.90
39957;DHT22;48483;44.640;7.494;2022-10-31T05:15:49;13.90;99.90
39957;DHT22;48483;44.640;7.494;2022-10-31T05:18:25;13.90;99.90
39957;DHT22;48483;44.640;7.494;2022-10-31T05:21:27;13.90;99.90
39957;DHT22;48483;44.640;7.494;2022-10-31T05:24:00;13.90;99.90
39957;DHT22;48483;44.640;7.494;2022-10-31T05:26:27;13.90;99.90
39957;DHT22;48483;44.640;7.494;2022-10-31T05:28:55;13.90;99.90
39957;DHT22;48483;44.640;7.494;2022-10-31T05:31:23;13.90;99.90
39957;DHT22;48483;44.640;7.494;2022-10-31T05:33:50;13.90;99.90
39957;DHT22;48483;44.640;7.494;2022-10-31T05:36:40;13.90;99.90
39957;DHT22;48483;44.640;7.494;2022-10-31T05:39:14;13.90;99.90
39957;DHT22;48483;44.640;7.494;2022-10-31T05:41:43;13.90;99.90
39957;DHT22;48483;44.640;7.494;2022-10-31T05:44:21;13.80;99.90
39957;DHT22;48483;44.640;7.494;2022-10-31T05:47:03;13.80;99.90
39957;DHT22;48483;44.640;7.494;2022-10-31T05:49:48;13.80;99.90
39957;DHT22;48483;44.640;7.494;2022-10-31T05:52:33;13.80;99.90
39957;DHT22;48483;44.640;7.494;2022-10-31T05:55:09;13.80;99.90
39957;DHT22;48483;44.640;7.494;2022-10-31T05:57:37;13.70;99.90
39957;DHT22;48483;44.640;7.494;2022-10-31T06:00:05;13.80;99.90
39957;DHT22;48483;44.640;7.494;2022-10-31T06:02:34;13.80;99.90
39957;DHT22;48483;44.640;7.494;2022-10-31T06:05:22;13.80;99.90
39957;DHT22;48483;44.640;7.494;2022-10-31T06:07:49;13.80;99.90
39957;DHT22;48483;44.640;7.494;2022-10-31T06:10:17;13.80;99.90
39957;DHT22;48483;44.640;7.494;2022-10-31T06:12:46;13.80;99.90
39957;DHT22;48483;44.640;7.494;2022-10-31T06:15:29;13.80;99.90
39957;DHT22;48483;44.640;7.494;2022-10-31T06:17:59;13.80;99.90
39957;DHT22;48483;44.640;7.494;2022-10-31T06:20:27;13.70;99.90
39957;DHT22;48483;44.640;7.494;2022-10-31T06:23:02;13.70;99.90
39957;DHT22;48483;44.640;7.494;2022-10-31T06:25:32;13.70;99.90
39957;DHT22;48483;44.640;7.494;2022-10-31T06:28:00;13.70;99.90
39957;DHT22;48483;44.640;7.494;2022-10-31T06:30:35;13.70;99.90
39957;DHT22;48483;44.640;7.494;2022-10-31T06:33:03;13.70;99.90
39957;DHT22;48483;44.640;7.494;2022-10-31T06:35:30;13.70;99.90
39957;DHT22;48483;44.640;7.494;2022-10-31T06:37:57;13.70;99.90
39957;DHT22;48483;44.640;7.494;2022-10-31T06:40:40;13.70;99.90
39957;DHT22;48483;44.640;7.494;2022-10-31T06:43:16;13.70;99.90
39957;DHT22;48483;44.640;7.494;2022-10-31T06:45:44;13.70;99.90
39957;DHT22;48483;44.640;7.494;2022-10-31T06:48:34;13.70;99.90
39957;DHT22;48483;44.640;7.494;2022-10-31T06:51:20;13.70;99.90
39957;DHT22;48483;44.640;7.494;2022-10-31T06:53:49;13.80;99.90
39957;DHT22;48483;44.640;7.494;2022-10-31T06:56:18;13.80;99.90
39957;DHT22;48483;44.640;7.494;2022-10-31T06:58:49;13.80;99.90
39957;DHT22;48483;44.640;7.494;2022-10-31T07:01:18;13.80;99.90
39957;DHT22;48483;44.640;7.494;2022-10-31T07:03:44;13.80;99.90
39957;DHT22;48483;44.640;7.494;2022-10-31T07:06:11;13.80;99.90
39957;DHT22;48483;44.640;7.494;2022-10-31T07:08:39;13.90;99.90
39957;DHT22;48483;44.640;7.494;2022-10-31T07:11:06;13.90;99.90
39957;DHT22;48483;44.640;7.494;2022-10-31T07:13:35;14.00;99.90
39957;DHT22;48483;44.640;7.494;2022-10-31T07:16:06;14.10;99.90
39957;DHT22;48483;44.640;7.494;2022-10-31T07:18:35;14.20;99.90
39957;DHT22;48483;44.640;7.494;2022-10-31T07:21:02;14.30;99.90
39957;DHT22;48483;44.640;7.494;2022-10-31T07:23:29;14.40;99.90
39957;DHT22;48483;44.640;7.494;2022-10-31T07:26:18;14.50;99.90
39957;DHT22;48483;44.640;7.494;2022-10-31T07:28:48;14.60;99.90
39957;DHT22;48483;44.640;7.494;2022-10-31T07:31:18;14.70;99.90
39957;DHT22;48483;44.640;7.494;2022-10-31T07:34:03;14.70;99.90
39957;DHT22;48483;44.640;7.494;2022-10-31T07:36:50;14.80;99.90
39957;DHT22;48483;44.640;7.494;2022-10-31T07:39:17;14.80;99.90
39957;DHT22;48483;44.640;7.494;2022-10-31T07:41:43;14.90;99.90
39957;DHT22;48483;44.640;7.494;2022-10-31T07:44:11;15.00;99.90
39957;DHT22;48483;44.640;7.494;2022-10-31T07:46:57;15.10;99.90
39957;DHT22;48483;44.640;7.494;2022-10-31T07:49:44;15.20;99.90
39957;DHT22;48483;44.640;7.494;2022-10-31T07:52:57;15.20;99.90
39957;DHT22;48483;44.640;7.494;2022-10-31T07:55:53;15.30;99.90
39957;DHT22;48483;44.640;7.494;2022-10-31T07:58:20;15.40;99.90
39957;DHT22;48483;44.640;7.494;2022-10-31T08:00:48;15.50;99.90
39957;DHT22;48483;44.640;7.494;2022-10-31T08:03:19;15.50;99.90
39957;DHT22;48483;44.640;7.494;2022-10-31T08:06:06;15.50;99.90
39957;DHT22;48483;44.640;7.494;2022-10-31T08:08:53;15.60;99.90
39957;DHT22;48483;44.640;7.494;2022-10-31T08:11:20;15.60;99.90
39957;DHT22;48483;44.640;7.494;2022-10-31T08:13:47;15.60;99.90
39957;DHT22;48483;44.640;7.494;2022-10-31T08:16:16;15.70;99.90
39957;DHT22;48483;44.640;7.494;2022-10-31T08:18:51;15.80;99.90
39957;DHT22;48483;44.640;7.494;2022-10-31T08:21:20;15.90;99.90
39957;DHT22;48483;44.640;7.494;2022-10-31T08:23:47;15.90;99.90
39957;DHT22;48483;44.640;7.494;2022-10-31T08:26:15;16.00;99.90
39957;DHT22;48483;44.640;7.494;2022-10-31T08:28:42;16.00;99.90
39957;DHT22;48483;44.640;7.494;2022-10-31T08:31:09;16.20;99.90
39957;DHT22;48483;44.640;7.494;2022-10-31T08:33:40;16.20;99.90
39957;DHT22;48483;44.640;7.494;2022-10-31T08:36:19;16.30;99.90
39957;DHT22;48483;44.640;7.494;2022-10-31T08:38:54;16.40;99.90
39957;DHT22;48483;44.640;7.494;2022-10-31T08:41:21;16.50;99.90
39957;DHT22;48483;44.640;7.494;2022-10-31T08:43:47;16.50;99.90
39957;DHT22;48483;44.640;7.494;2022-10-31T08:46:16;16.60;99.90
39957;DHT22;48483;44.640;7.494;2022-10-31T08:48:47;16.70;99.90
39957;DHT22;48483;44.640;7.494;2022-10-31T08:51:14;16.70;99.90
39957;DHT22;48483;44.640;7.494;2022-10-31T08:53:41;16.80;99.90
39957;DHT22;48483;44.640;7.494;2022-10-31T08:56:26;16.90;99.90
39957;DHT22;48483;44.640;7.494;2022-10-31T08:58:53;17.00;99.90
39957;DHT22;48483;44.640;7.494;2022-10-31T09:01:28;17.00;99.90
39957;DHT22;48483;44.640;7.494;2022-10-31T09:03:56;17.10;99.90
39957;DHT22;48483;44.640;7.494;2022-10-31T09:06:23;17.10;99.90
39957;DHT22;48483;44.640;7.494;2022-10-31T09:08:50;17.20;99.90
39957;DHT22;48483;44.640;7.494;2022-10-31T09:11:16;17.20;99.90
39957;DHT22;48483;44.640;7.494;2022-10-31T09:14:18;17.30;99.90
39957;DHT22;48483;44.640;7.494;2022-10-31T09:17:11;17.40;99.90
39957;DHT22;48483;44.640;7.494;2022-10-31T09:20:02;17.40;99.90
39957;DHT22;48483;44.640;7.494;2022-10-31T09:22:32;17.50;99.90
39957;DHT22;48483;44.640;7.494;2022-10-31T09:24:59;17.50;99.90
39957;DHT22;48483;44.640;7.494;2022-10-31T09:27:26;17.60;99.90
39957;DHT22;48483;44.640;7.494;2022-10-31T09:29:56;17.60;99.90
39957;DHT22;48483;44.640;7.494;2022-10-31T09:32:22;17.70;99.90
39957;DHT22;48483;44.640;7.494;2022-10-31T09:34:50;17.70;99.90
39957;DHT22;48483;44.640;7.494;2022-10-31T09:37:21;17.80;99.90
39957;DHT22;48483;44.640;7.494;2022-10-31T09:39:48;17.80;99.90
39957;DHT22;48483;44.640;7.494;2022-10-31T09:42:40;17.80;99.90
39957;DHT22;48483;44.640;7.494;2022-10-31T09:45:20;17.90;99.90
39957;DHT22;48483;44.640;7.494;2022-10-31T09:47:58;18.00;99.90
39957;DHT22;48483;44.640;7.494;2022-10-31T09:50:49;18.00;99.90
39957;DHT22;48483;44.640;7.494;2022-10-31T09:53:40;18.10;99.90
39957;DHT22;48483;44.640;7.494;2022-10-31T09:56:13;18.10;99.90
39957;DHT22;48483;44.640;7.494;2022-10-31T09:58:43;18.20;99.90
39957;DHT22;48483;44.640;7.494;2022-10-31T10:01:33;18.20;99.90
39957;DHT22;48483;44.640;7.494;2022-10-31T10:04:05;18.30;99.90
39957;DHT22;48483;44.640;7.494;2022-10-31T10:06:56;18.30;99.90
39957;DHT22;48483;44.640;7.494;2022-10-31T10:09:53;18.40;99.90
39957;DHT22;48483;44.640;7.494;2022-10-31T10:12:49;18.40;99.90
39957;DHT22;48483;44.640;7.494;2022-10-31T10:15:35;18.40;99.90
39957;DHT22;48483;44.640;7.494;2022-10-31T10:18:12;18.50;99.90
39957;DHT22;48483;44.640;7.494;2022-10-31T10:20:56;18.50;99.90
39957;DHT22;48483;44.640;7.494;2022-10-31T10:23:39;18.60;99.90
39957;DHT22;48483;44.640;7.494;2022-10-31T10:26:15;18.60;99.90
39957;DHT22;48483;44.640;7.494;2022-10-31T10:28:45;18.70;99.90
39957;DHT22;48483;44.640;7.494;2022-10-31T10:31:14;18.80;99.90
39957;DHT22;48483;44.640;7.494;2022-10-31T10:33:45;18.80;99.90
39957;DHT22;48483;44.640;7.494;2022-10-31T10:36:17;18.90;99.90
39957;DHT22;48483;44.640;7.494;2022-10-31T10:38:50;18.90;99.90
39957;DHT22;48483;44.640;7.494;2022-10-31T10:41:20;19.00;99.90
39957;DHT22;48483;44.640;7.494;2022-10-31T10:43:49;19.00;99.90
39957;DHT22;48483;44.640;7.494;2022-10-31T10:46:21;19.00;99.90
39957;DHT22;48483;44.640;7.494;2022-10-31T10:49:17;19.00;99.90
39957;DHT22;48483;44.640;7.494;2022-10-31T10:51:47;19.10;99.90
39957;DHT22;48483;44.640;7.494;2022-10-31T10:57:20;19.10;99.90
39957;DHT22;48483;44.640;7.494;2022-10-31T10:59:48;19.10;99.90
39957;DHT22;48483;44.640;7.494;2022-10-31T11:02:17;19.20;99.90
39957;DHT22;48483;44.640;7.494;2022-10-31T11:04:48;19.20;99.90
39957;DHT22;48483;44.640;7.494;2022-10-31T11:07:16;19.20;99.90
39957;DHT22;48483;44.640;7.494;2022-10-31T11:09:43;19.20;99.90
39957;DHT22;48483;44.640;7.494;2022-10-31T11:12:15;19.30;99.90
39957;DHT22;48483;44.640;7.494;2022-10-31T11:14:46;19.30;99.90
39957;DHT22;48483;44.640;7.494;2022-10-31T11:17:22;19.30;99.90
39957;DHT22;48483;44.640;7.494;2022-10-31T11:20:01;19.30;99.90
39957;DHT22;48483;44.640;7.494;2022-10-31T11:22:28;19.30;99.90
39957;DHT22;48483;44.640;7.494;2022-10-31T11:24:55;19.30;99.90
39957;DHT22;48483;44.640;7.494;2022-10-31T11:27:25;19.40;99.90
39957;DHT22;48483;44.640;7.494;2022-10-31T11:29:52;19.40;99.90
39957;DHT22;48483;44.640;7.494;2022-10-31T11:32:20;19.50;99.90
39957;DHT22;48483;44.640;7.494;2022-10-31T11:34:51;19.50;99.90
39957;DHT22;48483;44.640;7.494;2022-10-31T11:37:20;19.50;99.90
39957;DHT22;48483;44.640;7.494;2022-10-31T11:39:51;19.50;99.90
39957;DHT22;48483;44.640;7.494;2022-10-31T11:42:22;19.50;99.90
39957;DHT22;48483;44.640;7.494;2022-10-31T11:44:51;19.60;99.90
39957;DHT22;48483;44.640;7.494;2022-10-31T11:47:24;19.60;99.90
39957;DHT22;48483;44.640;7.494;2022-10-31T11:49:52;19.60;99.90
39957;DHT22;48483;44.640;7.494;2022-10-31T11:52:21;19.60;99.90
39957;DHT22;48483;44.640;7.494;2022-10-31T11:54:50;19.60;99.90
39957;DHT22;48483;44.640;7.494;2022-10-31T11:57:25;19.60;99.90
39957;DHT22;48483;44.640;7.494;2022-10-31T11:59:53;19.60;99.90
39957;DHT22;48483;44.640;7.494;2022-10-31T12:02:20;19.60;99.90
39957;DHT22;48483;44.640;7.494;2022-10-31T12:04:51;19.60;99.90
39957;DHT22;48483;44.640;7.494;2022-10-31T12:07:18;19.70;99.90
39957;DHT22;48483;44.640;7.494;2022-10-31T12:09:45;19.70;99.90
39957;DHT22;48483;44.640;7.494;2022-10-31T12:12:29;19.70;99.90
39957;DHT22;48483;44.640;7.494;2022-10-31T12:15:07;19.70;99.90
39957;DHT22;48483;44.640;7.494;2022-10-31T12:17:41;19.70;99.90
39957;DHT22;48483;44.640;7.494;2022-10-31T12:20:18;19.80;99.90
39957;DHT22;48483;44.640;7.494;2022-10-31T12:22:52;19.80;99.90
39957;DHT22;48483;44.640;7.494;2022-10-31T12:25:35;19.90;99.90
39957;DHT22;48483;44.640;7.494;2022-10-31T12:28:32;19.80;99.90
39957;DHT22;48483;44.640;7.494;2022-10-31T12:31:12;19.80;99.90
39957;DHT22;48483;44.640;7.494;2022-10-31T12:33:50;19.80;99.90
39957;DHT22;48483;44.640;7.494;2022-10-31T12:36:34;19.90;99.90
39957;DHT22;48483;44.640;7.494;2022-10-31T12:39:24;19.90;99.90
39957;DHT22;48483;44.640;7.494;2022-10-31T12:41:53;19.80;99.90
39957;DHT22;48483;44.640;7.494;2022-10-31T12:45:04;19.80;99.90
39957;DHT22;48483;44.640;7.494;2022-10-31T12:47:42;19.90;99.90
39957;DHT22;48483;44.640;7.494;2022-10-31T12:50:21;19.90;99.90
39957;DHT22;48483;44.640;7.494;2022-10-31T12:52:56;19.90;99.90
39957;DHT22;48483;44.640;7.494;2022-10-31T12:55:38;19.90;99.90
39957;DHT22;48483;44.640;7.494;2022-10-31T12:58:09;19.90;99.90
39957;DHT22;48483;44.640;7.494;2022-10-31T13:00:40;19.90;99.90
39957;DHT22;48483;44.640;7.494;2022-10-31T13:03:20;19.80;99.90
39957;DHT22;48483;44.640;7.494;2022-10-31T13:05:51;19.80;99.90
39957;DHT22;48483;44.640;7.494;2022-10-31T13:08:21;19.90;99.90
39957;DHT22;48483;44.640;7.494;2022-10-31T13:10:51;19.90;99.90
39957;DHT22;48483;44.640;7.494;2022-10-31T13:13:24;19.90;99.90
39957;DHT22;48483;44.640;7.494;2022-10-31T13:15:57;19.90;99.90
39957;DHT22;48483;44.640;7.494;2022-10-31T13:18:29;20.00;99.90
39957;DHT22;48483;44.640;7.494;2022-10-31T13:20:59;20.00;99.90
39957;DHT22;48483;44.640;7.494;2022-10-31T13:23:30;20.00;99.90
39957;DHT22;48483;44.640;7.494;2022-10-31T13:26:01;20.00;99.90
39957;DHT22;48483;44.640;7.494;2022-10-31T13:28:33;20.00;99.90
39957;DHT22;48483;44.640;7.494;2022-10-31T13:31:02;19.90;99.90
39957;DHT22;48483;44.640;7.494;2022-10-31T13:33:32;19.90;99.90
39957;DHT22;48483;44.640;7.494;2022-10-31T13:36:14;20.00;99.90
39957;DHT22;48483;44.640;7.494;2022-10-31T13:38:49;19.90;99.90
39957;DHT22;48483;44.640;7.494;2022-10-31T13:41:27;19.90;99.90
39957;DHT22;48483;44.640;7.494;2022-10-31T13:44:00;19.90;99.90
39957;DHT22;48483;44.640;7.494;2022-10-31T13:46:37;19.90;99.90
39957;DHT22;48483;44.640;7.494;2022-10-31T13:49:19;20.00;99.90
39957;DHT22;48483;44.640;7.494;2022-10-31T13:51:48;19.90;99.90
39957;DHT22;48483;44.640;7.494;2022-10-31T13:54:32;20.00;99.90
39957;DHT22;48483;44.640;7.494;2022-10-31T13:57:00;20.00;99.90
39957;DHT22;48483;44.640;7.494;2022-10-31T13:59:28;20.00;99.90
39957;DHT22;48483;44.640;7.494;2022-10-31T14:01:58;20.10;99.90
39957;DHT22;48483;44.640;7.494;2022-10-31T14:04:30;20.10;99.90
39957;DHT22;48483;44.640;7.494;2022-10-31T14:07:05;20.00;99.90
39957;DHT22;48483;44.640;7.494;2022-10-31T14:09:35;20.00;99.90
39957;DHT22;48483;44.640;7.494;2022-10-31T14:12:07;20.00;99.90
39957;DHT22;48483;44.640;7.494;2022-10-31T14:14:43;19.90;99.90
39957;DHT22;48483;44.640;7.494;2022-10-31T14:17:23;19.80;99.90
39957;DHT22;48483;44.640;7.494;2022-10-31T14:20:25;19.80;99.90
39957;DHT22;48483;44.640;7.494;2022-10-31T14:22:52;19.90;99.90
39957;DHT22;48483;44.640;7.494;2022-10-31T14:25:26;19.90;99.90
39957;DHT22;48483;44.640;7.494;2022-10-31T14:27:53;19.90;99.90
39957;DHT22;48483;44.640;7.494;2022-10-31T14:30:22;19.90;99.90
39957;DHT22;48483;44.640;7.494;2022-10-31T14:32:53;19.90;99.90
39957;DHT22;48483;44.640;7.494;2022-10-31T14:35:21;19.90;99.90
39957;DHT22;48483;44.640;7.494;2022-10-31T14:38:19;19.90;99.90
39957;DHT22;48483;44.640;7.494;2022-10-31T14:41:04;19.90;99.90
39957;DHT22;48483;44.640;7.494;2022-10-31T14:46:36;20.00;99.90
39957;DHT22;48483;44.640;7.494;2022-10-31T14:49:17;19.90;99.90
39957;DHT22;48483;44.640;7.494;2022-10-31T14:51:47;19.90;99.90
39957;DHT22;48483;44.640;7.494;2022-10-31T14:54:17;19.90;99.90
39957;DHT22;48483;44.640;7.494;2022-10-31T14:56:49;19.90;99.90
39957;DHT22;48483;44.640;7.494;2022-10-31T14:59:21;19.90;99.90
39957;DHT22;48483;44.640;7.494;2022-10-31T15:01:55;19.80;99.90
39957;DHT22;48483;44.640;7.494;2022-10-31T15:04:25;19.80;99.90
39957;DHT22;48483;44.640;7.494;2022-10-31T15:06:57;19.70;99.90
39957;DHT22;48483;44.640;7.494;2022-10-31T15:09:28;19.70;99.90
39957;DHT22;48483;44.640;7.494;2022-10-31T15:11:54;19.70;99.90
39957;DHT22;48483;44.640;7.494;2022-10-31T15:14:23;19.70;99.90
39957;DHT22;48483;44.640;7.494;2022-10-31T15:16:51;19.70;99.90
39957;DHT22;48483;44.640;7.494;2022-10-31T15:19:23;19.60;99.90
39957;DHT22;48483;44.640;7.494;2022-10-31T15:21:52;19.60;99.90
39957;DHT22;48483;44.640;7.494;2022-10-31T15:24:19;19.50;99.90
39957;DHT22;48483;44.640;7.494;2022-10-31T15:26:49;19.50;99.90
39957;DHT22;48483;44.640;7.494;2022-10-31T15:29:19;19.50;99.90
39957;DHT22;48483;44.640;7.494;2022-10-31T15:31:52;19.40;99.90
39957;DHT22;48483;44.640;7.494;2022-10-31T15:34:24;19.40;99.90
39957;DHT22;48483;44.640;7.494;2022-10-31T15:36:52;19.30;99.90
39957;DHT22;48483;44.640;7.494;2022-10-31T15:39:19;19.30;99.90
39957;DHT22;48483;44.640;7.494;2022-10-31T15:41:50;19.30;99.90
39957;DHT22;48483;44.640;7.494;2022-10-31T15:44:21;19.20;99.90
39957;DHT22;48483;44.640;7.494;2022-10-31T15:46:54;19.20;99.90
39957;DHT22;48483;44.640;7.494;2022-10-31T15:49:32;19.20;99.90
39957;DHT22;48483;44.640;7.494;2022-10-31T15:52:07;19.20;99.90
39957;DHT22;48483;44.640;7.494;2022-10-31T15:54:44;19.10;99.90
39957;DHT22;48483;44.640;7.494;2022-10-31T15:57:12;19.10;99.90
39957;DHT22;48483;44.640;7.494;2022-10-31T15:59:40;19.00;99.90
39957;DHT22;48483;44.640;7.494;2022-10-31T16:02:10;19.00;99.90
39957;DHT22;48483;44.640;7.494;2022-10-31T16:04:48;19.00;99.90
39957;DHT22;48483;44.640;7.494;2022-10-31T16:07:18;18.90;99.90
39957;DHT22;48483;44.640;7.494;2022-10-31T16:09:55;18.90;99.90
39957;DHT22;48483;44.640;7.494;2022-10-31T16:12:23;18.80;99.90
39957;DHT22;48483;44.640;7.494;2022-10-31T16:14:51;18.80;99.90
39957;DHT22;48483;44.640;7.494;2022-10-31T16:17:20;18.80;99.90
39957;DHT22;48483;44.640;7.494;2022-10-31T16:19:51;18.70;99.90